createdAt,value
2022-11-13T00:01:14.683Z,68.77
2022-11-13T00:03:42.031Z,59.70
2022-11-13T00:06:10.347Z,55.53
2022-11-13T00:08:37.401Z,42.00
2022-11-13T00:11:11.304Z,36.20
2022-11-13T00:13:38.465Z,54.47
2022-11-13T00:16:08.478Z,60.60
2022-11-13T00:18:36.543Z,44.10
2022-11-13T00:21:12.038Z,33.30
2022-11-13T00:23:38.942Z,22.93
2022-11-13T00:26:12.549Z,26.30
2022-11-13T00:28:39.681Z,22.60
2022-11-13T00:31:08.068Z,25.87
2022-11-13T00:36:26.475Z,28.73
2022-11-13T00:38:54.501Z,21.57
2022-11-13T00:41:21.679Z,19.90
2022-11-13T00:43:48.860Z,22.60
2022-11-13T00:46:16.272Z,20.60
2022-11-13T00:48:43.378Z,23.23
2022-11-13T00:51:10.625Z,24.90
2022-11-13T00:53:37.822Z,31.80
2022-11-13T00:56:05.318Z,27.47
2022-11-13T00:58:32.492Z,25.83
2022-11-13T01:01:12.284Z,34.40
2022-11-13T01:03:39.894Z,26.73
2022-11-13T01:06:15.526Z,25.90
2022-11-13T01:08:42.720Z,25.33
2022-11-13T01:11:15.447Z,20.23
2022-11-13T01:13:44.646Z,28.50
2022-11-13T01:16:13.539Z,20.73
2022-11-13T01:18:41.682Z,22.27
2022-11-13T01:21:20.851Z,24.50
2022-11-13T01:23:48.157Z,52.33
2022-11-13T01:26:18.606Z,55.40
2022-11-13T01:28:46.052Z,59.40
2022-11-13T01:31:19.712Z,40.10
2022-11-13T01:33:47.679Z,40.53
2022-11-13T01:36:27.763Z,37.70
2022-11-13T01:38:55.355Z,34.50
2022-11-13T01:41:25.826Z,31.13
2022-11-13T01:43:54.212Z,26.47
2022-11-13T01:46:42.650Z,32.50
2022-11-13T01:49:34.188Z,37.83
2022-11-13T01:52:04.714Z,29.87
2022-11-13T01:54:37.765Z,26.47
2022-11-13T01:57:05.633Z,38.03
2022-11-13T01:59:36.534Z,27.50
2022-11-13T02:02:03.811Z,44.93
2022-11-13T02:04:31.958Z,33.40
2022-11-13T02:07:06.475Z,23.17
2022-11-13T02:09:42.129Z,33.63
2022-11-13T02:12:12.767Z,36.13
2022-11-13T02:14:54.428Z,32.30
2022-11-13T02:17:28.205Z,27.67
2022-11-13T02:19:59.923Z,24.47
2022-11-13T02:22:35.453Z,21.07
2022-11-13T02:25:04.191Z,25.37
2022-11-13T02:27:36.367Z,24.93
2022-11-13T02:30:28.247Z,22.20
2022-11-13T02:32:56.626Z,33.27
2022-11-13T02:35:37.054Z,45.97
2022-11-13T02:38:06.092Z,37.13
2022-11-13T02:40:34.290Z,32.47
2022-11-13T02:43:01.493Z,31.70
2022-11-13T02:45:28.413Z,29.60
2022-11-13T02:47:55.458Z,27.60
2022-11-13T02:50:22.574Z,25.70
2022-11-13T02:52:49.600Z,26.60
2022-11-13T02:55:16.675Z,25.87
2022-11-13T02:57:43.651Z,25.40
2022-11-13T03:00:14.012Z,24.60
2022-11-13T03:02:41.760Z,33.00
2022-11-13T03:05:12.633Z,26.73
2022-11-13T03:07:41.241Z,27.70
2022-11-13T03:10:09.622Z,45.03
2022-11-13T03:12:37.742Z,49.60
2022-11-13T03:15:06.255Z,42.73
2022-11-13T03:17:33.347Z,41.63
2022-11-13T03:20:02.683Z,49.77
2022-11-13T03:22:29.562Z,48.00
2022-11-13T03:24:56.572Z,63.87
2022-11-13T03:27:23.668Z,59.30
2022-11-13T03:29:50.659Z,46.67
2022-11-13T03:32:17.593Z,38.93
2022-11-13T03:34:44.587Z,28.00
2022-11-13T03:37:11.650Z,24.93
2022-11-13T03:39:38.611Z,25.40
2022-11-13T03:42:05.602Z,29.83
2022-11-13T03:44:32.482Z,24.40
2022-11-13T03:47:00.886Z,22.80
2022-11-13T03:49:27.915Z,24.20
2022-11-13T03:51:54.983Z,21.27
2022-11-13T03:54:22.104Z,21.80
2022-11-13T03:56:49.082Z,25.83
2022-11-13T03:59:16.372Z,25.10
2022-11-13T04:01:43.299Z,22.30
2022-11-13T04:04:10.284Z,23.17
2022-11-13T04:06:37.551Z,22.50
2022-11-13T04:09:04.592Z,21.20
2022-11-13T04:11:31.865Z,21.73
2022-11-13T04:13:58.878Z,22.83
2022-11-13T04:16:25.956Z,22.63
2022-11-13T04:18:52.947Z,21.53
2022-11-13T04:21:19.869Z,21.00
2022-11-13T04:23:47.855Z,21.83
2022-11-13T04:26:14.960Z,21.20
2022-11-13T04:28:42.097Z,23.50
2022-11-13T04:31:09.032Z,21.90
2022-11-13T04:33:35.933Z,21.50
2022-11-13T04:36:03.018Z,20.93
2022-11-13T04:38:31.720Z,20.37
2022-11-13T04:41:17.640Z,20.70
2022-11-13T04:43:44.624Z,21.63
2022-11-13T04:46:11.605Z,21.77
2022-11-13T04:48:38.493Z,20.30
2022-11-13T04:51:06.010Z,20.00
2022-11-13T04:53:32.954Z,18.73
2022-11-13T04:55:59.885Z,18.67
2022-11-13T04:58:27.230Z,20.47
2022-11-13T05:00:54.449Z,20.20
2022-11-13T05:03:23.230Z,18.57
2022-11-13T05:05:52.833Z,17.70
2022-11-13T05:08:23.353Z,18.33
2022-11-13T05:10:50.244Z,18.27
2022-11-13T05:13:17.484Z,17.93
2022-11-13T05:15:44.467Z,16.50
2022-11-13T05:18:11.533Z,16.87
2022-11-13T05:20:38.492Z,16.60
2022-11-13T05:23:05.417Z,16.87
2022-11-13T05:25:32.689Z,16.57
2022-11-13T05:27:59.791Z,16.23
2022-11-13T05:30:27.017Z,17.10
2022-11-13T05:32:54.006Z,18.83
2022-11-13T05:35:20.962Z,19.23
2022-11-13T05:37:47.853Z,16.37
2022-11-13T05:40:14.805Z,17.00
2022-11-13T05:42:41.844Z,15.60
2022-11-13T05:45:09.591Z,17.00
2022-11-13T05:47:36.513Z,17.07
2022-11-13T05:50:03.975Z,16.27
2022-11-13T05:52:31.088Z,16.70
2022-11-13T05:54:58.086Z,36.03
2022-11-13T05:57:25.075Z,47.10
2022-11-13T05:59:51.981Z,37.57
2022-11-13T06:02:18.942Z,40.10
2022-11-13T06:04:46.104Z,27.83
2022-11-13T06:07:13.081Z,30.13
2022-11-13T06:09:40.509Z,23.93
2022-11-13T06:12:07.961Z,21.50
2022-11-13T06:14:35.127Z,21.80
2022-11-13T06:17:02.183Z,26.93
2022-11-13T06:19:29.269Z,19.00
2022-11-13T06:21:56.809Z,20.47
2022-11-13T06:24:23.887Z,26.03
2022-11-13T06:26:52.956Z,21.90
2022-11-13T06:29:20.007Z,23.60
2022-11-13T06:31:46.923Z,22.90
2022-11-13T06:34:13.856Z,24.53
2022-11-13T06:36:40.854Z,23.97
2022-11-13T06:39:09.713Z,22.13
2022-11-13T06:41:38.569Z,22.83
2022-11-13T06:44:05.553Z,22.37
2022-11-13T06:46:32.611Z,21.70
2022-11-13T06:48:59.928Z,24.73
2022-11-13T06:51:29.258Z,27.57
2022-11-13T06:53:57.046Z,34.60
2022-11-13T06:56:24.710Z,34.47
2022-11-13T06:58:52.018Z,36.37
2022-11-13T07:01:24.077Z,27.17
2022-11-13T07:03:51.334Z,53.40
2022-11-13T07:06:21.056Z,22.03
2022-11-13T07:08:48.573Z,21.13
2022-11-13T07:11:19.033Z,20.63
2022-11-13T07:13:46.120Z,17.43
2022-11-13T07:16:17.374Z,20.00
2022-11-13T07:18:49.212Z,21.03
2022-11-13T07:21:16.139Z,19.93
2022-11-13T07:23:43.766Z,40.93
2022-11-13T07:26:14.289Z,42.33
2022-11-13T07:28:41.366Z,28.03
2022-11-13T07:31:11.088Z,62.73
2022-11-13T07:33:38.173Z,76.43
2022-11-13T07:36:05.605Z,67.20
2022-11-13T07:38:32.486Z,39.37
2022-11-13T07:41:00.225Z,33.97
2022-11-13T07:43:27.613Z,29.30
2022-11-13T07:45:55.587Z,33.10
2022-11-13T07:48:23.075Z,17.63
2022-11-13T07:50:51.072Z,12.93
2022-11-13T07:53:21.510Z,12.43
2022-11-13T07:55:48.716Z,10.33
2022-11-13T07:58:15.708Z,13.43
2022-11-13T08:00:42.798Z,11.90
2022-11-13T08:03:13.787Z,15.23
2022-11-13T08:05:41.036Z,18.13
2022-11-13T08:08:12.095Z,41.93
2022-11-13T08:10:39.265Z,34.43
2022-11-13T08:13:08.779Z,34.20
2022-11-13T08:15:36.060Z,51.53
2022-11-13T08:18:04.683Z,44.13
2022-11-13T08:20:32.167Z,34.43
2022-11-13T08:23:00.733Z,16.70
2022-11-13T08:25:29.023Z,21.83
2022-11-13T08:27:56.287Z,16.67
2022-11-13T08:30:24.949Z,17.23
2022-11-13T08:32:51.939Z,11.60
2022-11-13T08:35:22.052Z,15.27
2022-11-13T08:37:51.028Z,13.17
2022-11-13T08:40:17.965Z,13.60
2022-11-13T08:42:45.172Z,25.37
2022-11-13T08:45:12.359Z,18.03
2022-11-13T08:47:39.293Z,32.40
2022-11-13T08:50:07.152Z,31.60
2022-11-13T08:52:34.153Z,35.93
2022-11-13T08:55:01.055Z,26.63
2022-11-13T08:57:28.003Z,21.97
2022-11-13T08:59:54.967Z,19.53
2022-11-13T09:02:21.886Z,10.57
2022-11-13T09:04:48.844Z,12.00
2022-11-13T09:07:16.224Z,8.77
2022-11-13T09:09:43.362Z,9.20
2022-11-13T09:12:10.600Z,7.93
2022-11-13T09:14:38.036Z,11.20
2022-11-13T09:17:05.081Z,8.87
2022-11-13T09:19:32.245Z,13.40
2022-11-13T09:21:59.254Z,15.37
2022-11-13T09:24:26.230Z,19.30
2022-11-13T09:26:53.179Z,17.57
2022-11-13T09:29:21.220Z,17.00
2022-11-13T09:32:01.358Z,18.20
2022-11-13T09:34:28.477Z,10.33
2022-11-13T09:36:55.578Z,12.67
2022-11-13T09:39:22.654Z,21.33
2022-11-13T09:42:18.372Z,13.10
2022-11-13T09:44:59.601Z,12.00
2022-11-13T09:47:33.927Z,5.60
2022-11-13T09:50:12.125Z,5.57
2022-11-13T09:52:42.791Z,4.80
2022-11-13T09:55:16.601Z,4.50
2022-11-13T09:58:04.995Z,4.40
2022-11-13T10:00:35.245Z,6.80
2022-11-13T10:06:41.853Z,4.00
2022-11-13T10:09:39.484Z,4.80
2022-11-13T10:12:08.643Z,4.63
2022-11-13T10:14:39.048Z,3.93
2022-11-13T10:17:33.712Z,4.97
2022-11-13T10:20:22.785Z,5.33
2022-11-13T10:22:53.933Z,4.40
2022-11-13T10:25:23.352Z,6.13
2022-11-13T10:28:11.375Z,4.77
2022-11-13T10:30:49.711Z,4.67
2022-11-13T10:33:21.957Z,4.60
2022-11-13T10:36:00.942Z,12.50
2022-11-13T10:39:05.196Z,8.47
2022-11-13T10:41:32.963Z,5.00
2022-11-13T10:44:02.172Z,3.47
2022-11-13T10:46:30.684Z,3.20
2022-11-13T10:48:58.739Z,3.90
2022-11-13T10:51:31.319Z,3.93
2022-11-13T10:53:59.704Z,3.53
2022-11-13T10:56:36.539Z,3.10
2022-11-13T10:59:19.123Z,2.97
2022-11-13T11:01:47.892Z,3.10
2022-11-13T11:04:27.658Z,2.70
2022-11-13T11:09:46.920Z,13.37
2022-11-13T11:12:30.604Z,5.40
2022-11-13T11:15:20.853Z,4.60
2022-11-13T11:18:00.675Z,5.10
2022-11-13T11:20:54.650Z,5.70
2022-11-13T11:24:04.676Z,7.60
2022-11-13T11:26:40.219Z,3.83
2022-11-13T11:29:41.639Z,5.40
2022-11-13T11:32:40.882Z,6.40
2022-11-13T11:35:24.815Z,6.57
2022-11-13T11:38:07.559Z,7.13
2022-11-13T11:40:42.996Z,2.67
2022-11-13T11:43:35.594Z,5.50
2022-11-13T11:46:02.898Z,3.73
2022-11-13T11:48:34.267Z,6.50
2022-11-13T11:51:42.462Z,5.10
2022-11-13T11:54:43.925Z,3.57
2022-11-13T11:57:57.386Z,3.47
2022-11-13T12:00:25.535Z,2.90
2022-11-13T12:03:04.538Z,3.23
2022-11-13T12:06:04.453Z,4.70
2022-11-13T12:09:23.012Z,3.70
2022-11-13T12:12:33.788Z,4.10
2022-11-13T12:15:33.195Z,5.80
2022-11-13T12:18:40.080Z,3.93
2022-11-13T12:21:24.310Z,4.10
2022-11-13T12:24:29.826Z,3.80
2022-11-13T12:27:41.355Z,3.77
2022-11-13T12:30:15.817Z,4.13
2022-11-13T12:33:18.289Z,2.67
2022-11-13T12:35:52.148Z,4.60
2022-11-13T12:38:46.123Z,3.50
2022-11-13T12:41:36.570Z,3.30
2022-11-13T12:44:30.923Z,2.80
2022-11-13T12:47:01.604Z,3.00
2022-11-13T12:49:37.280Z,1.97
2022-11-13T12:52:17.578Z,2.80
2022-11-13T12:54:44.573Z,2.20
2022-11-13T12:57:30.867Z,2.83
2022-11-13T13:00:00.768Z,3.87
2022-11-13T13:02:48.375Z,3.90
2022-11-13T13:05:25.228Z,4.63
2022-11-13T13:08:17.474Z,5.30
2022-11-13T13:11:26.122Z,5.43
2022-11-13T13:14:31.819Z,5.70
2022-11-13T13:17:27.776Z,5.63
2022-11-13T13:20:02.437Z,5.33
2022-11-13T13:22:34.347Z,5.60
2022-11-13T13:25:29.456Z,5.00
2022-11-13T13:28:01.880Z,5.50
2022-11-13T13:30:33.487Z,6.33
2022-11-13T13:33:25.585Z,4.30
2022-11-13T13:36:03.691Z,4.00
2022-11-13T13:38:46.767Z,5.13
2022-11-13T13:41:55.134Z,4.53
2022-11-13T13:45:09.749Z,3.60
2022-11-13T13:47:40.683Z,4.87
2022-11-13T13:50:13.266Z,3.97
2022-11-13T13:52:40.440Z,4.00
2022-11-13T13:55:16.686Z,5.93
2022-11-13T13:57:45.027Z,3.67
2022-11-13T14:00:13.866Z,2.10
2022-11-13T14:02:48.758Z,3.40
2022-11-13T14:05:31.049Z,3.23
2022-11-13T14:07:58.367Z,1.30
2022-11-13T14:10:29.571Z,1.80
2022-11-13T14:12:56.927Z,2.00
2022-11-13T14:15:25.831Z,15.93
2022-11-13T14:17:53.012Z,3.00
2022-11-13T14:20:21.120Z,3.10
2022-11-13T14:22:56.269Z,1.57
2022-11-13T14:25:27.318Z,2.67
2022-11-13T14:27:54.349Z,2.30
2022-11-13T14:30:28.756Z,1.77
2022-11-13T14:32:55.956Z,4.60
2022-11-13T14:35:27.467Z,2.17
2022-11-13T14:37:55.803Z,1.70
2022-11-13T14:40:32.054Z,1.70
2022-11-13T14:43:10.571Z,1.90
2022-11-13T14:45:37.487Z,1.60
2022-11-13T14:48:26.135Z,4.23
2022-11-13T14:50:57.435Z,3.00
2022-11-13T14:53:36.193Z,4.37
2022-11-13T14:56:11.962Z,1.70
2022-11-13T14:58:47.466Z,4.13
2022-11-13T15:01:20.938Z,1.70
2022-11-13T15:03:55.195Z,1.80
2022-11-13T15:06:25.031Z,3.60
2022-11-13T15:08:56.135Z,1.67
2022-11-13T15:11:26.796Z,2.60
2022-11-13T15:13:54.048Z,1.83
2022-11-13T15:16:27.595Z,2.17
2022-11-13T15:19:04.525Z,1.37
2022-11-13T15:21:32.089Z,2.23
2022-11-13T15:24:01.152Z,3.43
2022-11-13T15:26:28.276Z,5.63
2022-11-13T15:28:55.333Z,3.53
2022-11-13T15:31:36.989Z,3.87
2022-11-13T15:34:04.657Z,2.77
2022-11-13T15:36:32.107Z,3.00
2022-11-13T15:39:01.332Z,2.40
2022-11-13T15:41:34.166Z,2.70
2022-11-13T15:44:04.908Z,3.67
2022-11-13T15:46:31.908Z,4.93
2022-11-13T15:48:59.017Z,3.40
2022-11-13T15:51:35.034Z,4.70
2022-11-13T15:54:07.276Z,6.63
2022-11-13T15:56:36.261Z,5.83
2022-11-13T15:59:03.416Z,5.07
2022-11-13T16:01:30.638Z,5.47
2022-11-13T16:04:02.086Z,6.23
2022-11-13T16:06:30.461Z,5.63
2022-11-13T16:08:57.395Z,14.43
2022-11-13T16:11:24.347Z,11.33
2022-11-13T16:13:51.293Z,4.10
2022-11-13T16:16:31.443Z,3.97
2022-11-13T16:19:00.465Z,7.13
2022-11-13T16:21:28.257Z,3.30
2022-11-13T16:23:55.325Z,3.27
2022-11-13T16:26:25.468Z,4.83
2022-11-13T16:29:12.744Z,2.40
2022-11-13T16:31:41.778Z,2.57
2022-11-13T16:34:08.835Z,2.93
2022-11-13T16:36:35.868Z,3.00
2022-11-13T16:39:03.033Z,2.90
2022-11-13T16:41:31.745Z,3.27
2022-11-13T16:43:58.870Z,2.90
2022-11-13T16:46:37.423Z,3.60
2022-11-13T16:49:04.533Z,3.70
2022-11-13T16:51:31.669Z,4.40
2022-11-13T16:53:58.702Z,4.30
2022-11-13T16:56:30.840Z,5.30
2022-11-13T16:58:59.093Z,3.93
2022-11-13T17:01:26.759Z,3.97
2022-11-13T17:03:53.802Z,3.60
2022-11-13T17:06:32.798Z,3.67
2022-11-13T17:09:01.670Z,3.77
2022-11-13T17:11:30.770Z,8.60
2022-11-13T17:13:59.866Z,3.87
2022-11-13T17:16:28.605Z,3.73
2022-11-13T17:18:56.573Z,4.10
2022-11-13T17:21:28.636Z,3.27
2022-11-13T17:23:56.963Z,3.13
2022-11-13T17:26:25.019Z,8.07
2022-11-13T17:28:52.643Z,2.63
2022-11-13T17:31:20.589Z,2.53
2022-11-13T17:33:48.349Z,2.60
2022-11-13T17:36:15.331Z,2.80
2022-11-13T17:38:42.385Z,2.53
2022-11-13T17:41:11.417Z,2.93
2022-11-13T17:43:39.761Z,3.53
2022-11-13T17:46:12.579Z,3.10
2022-11-13T17:48:39.927Z,3.53
2022-11-13T17:51:08.566Z,2.73
2022-11-13T17:53:35.718Z,2.37
2022-11-13T17:56:07.240Z,2.93
2022-11-13T17:58:42.763Z,3.17
2022-11-13T18:01:18.018Z,3.30
2022-11-13T18:03:45.229Z,2.90
2022-11-13T18:06:19.632Z,3.90
2022-11-13T18:08:47.022Z,4.40
2022-11-13T18:11:16.963Z,4.70
2022-11-13T18:13:44.693Z,3.30
2022-11-13T18:16:19.008Z,2.77
2022-11-13T18:18:53.089Z,2.53
2022-11-13T18:21:26.152Z,2.23
2022-11-13T18:24:01.807Z,2.83
2022-11-13T18:26:30.949Z,3.93
2022-11-13T18:28:58.893Z,4.53
2022-11-13T18:31:26.751Z,3.47
2022-11-13T18:33:53.853Z,4.33
2022-11-13T18:36:20.788Z,6.80
2022-11-13T18:38:47.899Z,7.10
2022-11-13T18:41:19.756Z,3.23
2022-11-13T18:43:48.888Z,4.80
2022-11-13T18:46:18.449Z,7.20
2022-11-13T18:48:46.749Z,10.80
2022-11-13T18:51:23.080Z,8.93
2022-11-13T18:53:51.755Z,4.63
2022-11-13T18:56:21.551Z,3.37
2022-11-13T18:58:50.184Z,4.10
2022-11-13T19:01:24.994Z,4.00
2022-11-13T19:04:22.259Z,5.17
2022-11-13T19:06:40.937Z,4.90
2022-11-13T19:09:17.544Z,3.20
2022-11-13T19:11:45.160Z,5.10
2022-11-13T19:14:16.921Z,4.13
2022-11-13T19:16:44.154Z,3.03
2022-11-13T19:19:17.624Z,3.20
2022-11-13T19:21:45.436Z,3.47
2022-11-13T19:24:14.921Z,5.40
2022-11-13T19:26:43.385Z,6.03
2022-11-13T19:29:10.676Z,4.80
2022-11-13T19:31:37.787Z,3.63
2022-11-13T19:34:07.679Z,4.00
2022-11-13T19:36:35.626Z,3.97
2022-11-13T19:39:05.701Z,3.73
2022-11-13T19:41:32.952Z,5.03
2022-11-13T19:44:00.514Z,4.73
2022-11-13T19:46:28.614Z,4.90
2022-11-13T19:48:55.633Z,4.77
2022-11-13T19:51:24.822Z,4.20
2022-11-13T19:53:57.375Z,4.60
2022-11-13T19:56:25.300Z,4.50
2022-11-13T19:58:52.855Z,5.43
2022-11-13T20:01:28.444Z,4.90
2022-11-13T20:04:00.757Z,7.20
2022-11-13T20:06:29.544Z,5.33
2022-11-13T20:08:58.017Z,5.93
2022-11-13T20:11:25.005Z,5.50
2022-11-13T20:13:56.919Z,6.57
2022-11-13T20:16:24.695Z,5.87
2022-11-13T20:18:52.575Z,5.70
2022-11-13T20:21:27.717Z,6.30
2022-11-13T20:23:57.547Z,6.47
2022-11-13T20:26:25.582Z,6.80
2022-11-13T20:28:52.831Z,9.80
2022-11-13T20:31:22.878Z,10.27
2022-11-13T20:33:52.598Z,6.07
2022-11-13T20:36:20.259Z,6.07
2022-11-13T20:38:54.091Z,8.47
2022-11-13T20:41:21.680Z,6.53
2022-11-13T20:43:49.222Z,6.60
2022-11-13T20:46:17.730Z,6.70
2022-11-13T20:48:46.513Z,6.80
2022-11-13T20:51:15.366Z,7.23
2022-11-13T20:53:42.816Z,9.00
2022-11-13T20:56:10.308Z,8.87
2022-11-13T20:58:37.572Z,12.20
2022-11-13T21:01:07.397Z,10.90
2022-11-13T21:03:40.025Z,7.73
2022-11-13T21:06:15.931Z,7.47
2022-11-13T21:08:43.512Z,7.63
2022-11-13T21:11:15.650Z,7.40
2022-11-13T21:13:43.100Z,7.67
2022-11-13T21:16:10.290Z,10.93
2022-11-13T21:18:37.790Z,9.63
2022-11-13T21:21:11.977Z,12.13
2022-11-13T21:23:39.056Z,8.20
2022-11-13T21:26:07.910Z,9.23
2022-11-13T21:28:35.653Z,8.77
2022-11-13T21:31:05.115Z,8.97
2022-11-13T21:33:37.831Z,9.30
2022-11-13T21:36:11.675Z,12.80
2022-11-13T21:38:38.943Z,9.57
2022-11-13T21:41:23.601Z,9.27
2022-11-13T21:43:59.587Z,9.77
2022-11-13T21:46:32.546Z,13.00
2022-11-13T21:49:13.312Z,13.43
2022-11-13T21:51:42.321Z,17.20
2022-11-13T21:54:10.178Z,19.00
2022-11-13T21:56:38.994Z,27.63
2022-11-13T21:59:07.080Z,23.07
2022-11-13T22:01:38.457Z,25.90
2022-11-13T22:04:09.820Z,24.40
2022-11-13T22:06:36.902Z,32.77
2022-11-13T22:09:08.416Z,21.83
2022-11-13T22:11:37.389Z,13.90
2022-11-13T22:14:05.137Z,13.40
2022-11-13T22:16:37.785Z,12.13
2022-11-13T22:19:07.346Z,13.10
2022-11-13T22:21:36.271Z,15.57
2022-11-13T22:24:03.949Z,13.73
2022-11-13T22:26:31.853Z,16.40
2022-11-13T22:29:00.442Z,12.17
2022-11-13T22:31:32.219Z,16.83
2022-11-13T22:33:59.309Z,15.50
2022-11-13T22:36:28.452Z,13.93
2022-11-13T22:38:57.062Z,15.03
2022-11-13T22:41:27.803Z,14.10
2022-11-13T22:43:59.808Z,14.60
2022-11-13T22:46:30.057Z,17.50
2022-11-13T22:48:58.608Z,14.87
2022-11-13T22:51:35.254Z,14.07
2022-11-13T22:54:30.618Z,14.97
2022-11-13T22:57:02.273Z,15.10
2022-11-13T22:59:29.392Z,17.73
2022-11-13T23:01:56.593Z,14.20
2022-11-13T23:07:12.235Z,16.37
2022-11-13T23:09:39.434Z,17.63
2022-11-13T23:12:09.674Z,19.33
2022-11-13T23:14:55.242Z,15.17
2022-11-13T23:17:22.430Z,16.23
2022-11-13T23:19:50.010Z,19.80
2022-11-13T23:22:17.175Z,16.30
2022-11-13T23:24:44.232Z,17.50
2022-11-13T23:27:11.311Z,15.53
2022-11-13T23:29:38.339Z,17.30
2022-11-13T23:32:05.434Z,16.87
2022-11-13T23:34:58.265Z,16.73
2022-11-13T23:37:20.089Z,15.20
2022-11-13T23:39:47.343Z,16.70
2022-11-13T23:42:14.307Z,17.47
2022-11-13T23:44:41.402Z,20.50
2022-11-13T23:47:08.746Z,22.83
2022-11-13T23:49:35.854Z,16.33
2022-11-13T23:52:02.947Z,17.40
2022-11-13T23:54:30.203Z,18.70
2022-11-13T23:56:57.455Z,16.23
2022-11-13T23:59:24.516Z,18.83
